createdAt,value
2018-11-03T00:53:04.783Z,11.40
2018-11-03T00:55:38.686Z,10.70
2018-11-03T00:58:12.589Z,11.37
2018-11-03T01:00:46.542Z,12.10
2018-11-03T01:03:22.109Z,12.17
2018-11-03T01:05:56.298Z,12.10
2018-11-03T01:08:31.087Z,12.20
2018-11-03T01:11:05.476Z,12.23
2018-11-03T01:13:40.260Z,11.57
2018-11-03T01:16:14.412Z,11.67
2018-11-03T01:18:48.660Z,10.38
2018-11-03T01:21:22.420Z,11.23
2018-11-03T01:23:57.601Z,11.63
2018-11-03T01:26:31.166Z,11.00
2018-11-03T01:29:04.593Z,12.27
2018-11-03T01:31:38.057Z,11.87
2018-11-03T01:34:12.094Z,11.60
2018-11-03T01:36:46.478Z,10.70
2018-11-03T01:39:21.084Z,12.93
2018-11-03T01:41:55.492Z,12.80
2018-11-03T01:44:30.407Z,12.87
2018-11-03T01:47:04.250Z,13.90
2018-11-03T01:54:34.186Z,11.10
2018-11-03T01:57:08.045Z,12.90
2018-11-03T01:59:42.173Z,12.23
2018-11-03T02:02:17.231Z,12.50
2018-11-03T02:04:51.052Z,13.93
2018-11-03T02:07:25.263Z,14.27
2018-11-03T02:09:59.746Z,15.40
2018-11-03T02:12:34.677Z,14.67
2018-11-03T02:15:09.278Z,17.50
2018-11-03T02:17:43.833Z,12.37
2018-11-03T02:20:17.994Z,11.90
2018-11-03T02:22:52.250Z,14.27
2018-11-03T02:25:27.019Z,15.17
2018-11-03T02:28:02.152Z,13.37
2018-11-03T02:30:36.541Z,12.43
2018-11-03T02:33:11.211Z,13.57
2018-11-03T02:35:45.308Z,14.87
2018-11-03T02:38:19.148Z,11.97
2018-11-03T02:40:54.742Z,11.55
2018-11-03T02:43:28.830Z,11.20
2018-11-03T02:46:03.447Z,10.50
2018-11-03T02:48:38.355Z,8.87
2018-11-03T02:51:12.594Z,10.17
2018-11-03T02:53:46.608Z,8.37
2018-11-03T02:56:22.279Z,10.00
2018-11-03T02:58:56.474Z,9.73
2018-11-03T03:01:30.556Z,10.10
2018-11-03T03:04:04.917Z,8.90
2018-11-03T03:06:39.254Z,9.10
2018-11-03T03:09:13.569Z,9.87
2018-11-03T03:11:47.717Z,8.40
2018-11-03T03:14:20.808Z,7.17
2018-11-03T03:16:54.481Z,8.17
2018-11-03T03:19:28.988Z,8.80
2018-11-03T03:22:03.037Z,8.83
2018-11-03T03:24:36.964Z,8.63
2018-11-03T03:27:11.057Z,8.53
2018-11-03T03:29:45.251Z,9.27
2018-11-03T03:32:20.618Z,7.63
2018-11-03T03:34:54.332Z,8.33
2018-11-03T03:37:28.640Z,7.83
2018-11-03T03:40:02.503Z,8.47
2018-11-03T03:42:37.021Z,7.40
2018-11-03T03:45:12.259Z,8.33
2018-11-03T03:47:45.757Z,7.07
2018-11-03T03:50:19.743Z,8.10
2018-11-03T03:52:53.174Z,7.50
2018-11-03T03:55:26.952Z,7.45
2018-11-03T03:58:01.899Z,7.65
2018-11-03T04:00:35.428Z,8.83
2018-11-03T04:03:09.875Z,7.17
2018-11-03T04:05:43.980Z,7.60
2018-11-03T04:08:18.693Z,6.63
2018-11-03T04:10:52.597Z,7.70
2018-11-03T04:13:26.227Z,9.25
2018-11-03T04:16:00.095Z,8.43
2018-11-03T04:18:33.938Z,10.00
2018-11-03T04:21:08.261Z,9.30
2018-11-03T04:23:42.590Z,8.80
2018-11-03T04:26:16.270Z,8.43
2018-11-03T04:28:49.929Z,9.83
2018-11-03T04:31:24.937Z,9.83
2018-11-03T04:33:59.171Z,10.30
2018-11-03T04:36:33.160Z,8.73
2018-11-03T04:39:07.288Z,10.80
2018-11-03T04:46:40.881Z,9.80
2018-11-03T04:49:15.881Z,8.63
2018-11-03T04:51:49.877Z,10.13
2018-11-03T04:54:24.166Z,10.27
2018-11-03T04:56:58.073Z,11.08
2018-11-03T04:59:33.809Z,11.57
2018-11-03T05:02:07.990Z,9.63
2018-11-03T05:04:42.362Z,12.37
2018-11-03T05:07:16.212Z,10.77
2018-11-03T05:09:51.361Z,11.00
2018-11-03T05:12:27.313Z,11.43
2018-11-03T05:15:01.609Z,10.43
2018-11-03T05:17:35.261Z,10.57
2018-11-03T05:20:09.034Z,10.90
2018-11-03T05:22:43.060Z,10.18
2018-11-03T05:25:17.065Z,11.37
2018-11-03T05:27:51.766Z,12.00
2018-11-03T05:30:25.464Z,11.40
2018-11-03T05:32:59.592Z,11.43
2018-11-03T05:35:33.252Z,12.20
2018-11-03T05:38:07.104Z,9.88
2018-11-03T05:40:40.975Z,10.20
2018-11-03T05:43:14.858Z,9.03
2018-11-03T05:45:48.802Z,9.57
2018-11-03T05:48:23.609Z,9.30
2018-11-03T05:50:58.373Z,11.80
2018-11-03T05:53:33.370Z,9.85
2018-11-03T05:56:07.359Z,10.60
2018-11-03T05:58:41.762Z,10.45
2018-11-03T06:01:16.868Z,10.75
2018-11-03T06:03:51.564Z,9.63
2018-11-03T06:06:25.635Z,9.95
2018-11-03T06:09:00.264Z,10.70
2018-11-03T06:11:34.386Z,11.23
2018-11-03T06:14:08.897Z,8.53
2018-11-03T06:16:42.775Z,9.00
2018-11-03T06:19:16.650Z,9.13
2018-11-03T06:21:50.936Z,9.18
2018-11-03T06:24:24.876Z,9.98
2018-11-03T06:26:59.873Z,9.80
2018-11-03T06:29:33.951Z,8.50
2018-11-03T06:32:12.779Z,9.70
2018-11-03T06:34:46.468Z,9.00
2018-11-03T06:37:20.367Z,9.17
2018-11-03T06:39:54.042Z,9.13
2018-11-03T06:42:28.428Z,10.07
2018-11-03T06:45:02.115Z,8.18
2018-11-03T06:47:36.358Z,10.30
2018-11-03T06:50:11.219Z,9.23
2018-11-03T06:52:47.708Z,9.13
2018-11-03T06:55:21.712Z,9.27
2018-11-03T06:57:56.665Z,10.45
2018-11-03T07:00:31.916Z,11.20
2018-11-03T07:03:07.051Z,10.73
2018-11-03T07:05:43.163Z,11.18
2018-11-03T07:08:17.615Z,9.93
2018-11-03T07:10:52.920Z,8.73
2018-11-03T07:13:28.660Z,10.00
2018-11-03T07:16:04.690Z,9.88
2018-11-03T07:18:38.400Z,10.13
2018-11-03T07:21:12.679Z,9.03
2018-11-03T07:23:46.388Z,9.40
2018-11-03T07:26:20.681Z,9.83
2018-11-03T07:28:53.988Z,9.90
2018-11-03T07:31:28.015Z,9.80
2018-11-03T07:34:02.043Z,10.10
2018-11-03T07:36:36.715Z,10.40
2018-11-03T07:39:12.214Z,9.73
2018-11-03T07:41:46.201Z,8.97
2018-11-03T07:44:20.293Z,9.57
2018-11-03T07:46:53.840Z,10.33
2018-11-03T07:49:27.879Z,9.93
2018-11-03T07:52:01.897Z,8.53
2018-11-03T07:54:36.708Z,10.10
2018-11-03T07:57:11.317Z,8.87
2018-11-03T07:59:45.912Z,9.27
2018-11-03T08:02:19.988Z,8.40
2018-11-03T08:04:54.666Z,9.53
2018-11-03T08:07:29.391Z,9.53
2018-11-03T08:10:03.425Z,12.50
2018-11-03T08:12:37.135Z,12.03
2018-11-03T08:15:12.840Z,12.60
2018-11-03T08:17:46.548Z,13.63
2018-11-03T08:20:20.616Z,11.60
2018-11-03T08:22:56.002Z,11.12
2018-11-03T08:25:29.548Z,10.60
2018-11-03T08:28:03.558Z,10.95
2018-11-03T08:30:37.154Z,12.00
2018-11-03T08:33:11.329Z,10.98
2018-11-03T08:35:45.522Z,13.07
2018-11-03T08:38:19.781Z,11.80
2018-11-03T08:40:53.971Z,13.20
2018-11-03T08:43:28.894Z,12.07
2018-11-03T08:46:03.405Z,12.93
2018-11-03T08:48:37.528Z,11.80
2018-11-03T08:51:11.898Z,10.65
2018-11-03T08:53:45.570Z,12.83
2018-11-03T08:56:19.803Z,12.00
2018-11-03T08:58:54.018Z,10.30
2018-11-03T09:01:28.182Z,11.73
2018-11-03T09:04:01.891Z,11.30
2018-11-03T09:06:37.656Z,12.15
2018-11-03T09:09:11.697Z,11.30
2018-11-03T09:11:45.266Z,11.53
2018-11-03T09:14:19.100Z,10.23
2018-11-03T09:21:52.714Z,9.60
2018-11-03T09:24:26.281Z,11.65
2018-11-03T09:27:00.448Z,11.87
2018-11-03T09:29:34.102Z,10.47
2018-11-03T09:32:08.467Z,10.68
2018-11-03T09:34:42.567Z,11.37
2018-11-03T09:37:18.102Z,10.70
2018-11-03T09:39:51.881Z,10.90
2018-11-03T09:42:25.763Z,10.50
2018-11-03T09:44:59.959Z,10.30
2018-11-03T09:47:34.125Z,9.97
2018-11-03T09:50:08.220Z,9.60
2018-11-03T09:52:42.472Z,11.27
2018-11-03T09:55:19.129Z,12.40
2018-11-03T09:57:57.645Z,11.18
2018-11-03T10:00:33.294Z,8.87
2018-11-03T10:03:07.391Z,9.53
2018-11-03T10:05:41.083Z,10.83
2018-11-03T10:08:16.293Z,11.07
2018-11-03T10:10:50.291Z,9.80
2018-11-03T10:13:25.586Z,9.63
2018-11-03T10:15:59.863Z,10.83
2018-11-03T10:18:34.953Z,9.27
2018-11-03T10:21:11.295Z,10.13
2018-11-03T10:23:45.502Z,9.47
2018-11-03T10:26:19.309Z,10.30
2018-11-03T10:28:53.042Z,10.20
2018-11-03T10:31:27.646Z,11.37
2018-11-03T10:34:01.314Z,10.60
2018-11-03T10:36:35.355Z,9.87
2018-11-03T10:39:11.918Z,9.53
2018-11-03T10:41:45.712Z,11.70
2018-11-03T10:44:20.101Z,9.63
2018-11-03T10:46:54.211Z,10.33
2018-11-03T10:49:28.406Z,10.07
2018-11-03T10:52:03.074Z,10.47
2018-11-03T10:54:37.691Z,10.03
2018-11-03T10:57:12.728Z,9.53
2018-11-03T10:59:46.821Z,9.93
2018-11-03T11:02:24.787Z,9.73
2018-11-03T11:05:02.698Z,10.93
2018-11-03T11:07:41.103Z,9.97
2018-11-03T11:10:20.336Z,10.23
2018-11-03T11:12:54.563Z,11.43
2018-11-03T11:15:28.367Z,10.87
2018-11-03T11:18:03.451Z,13.03
2018-11-03T11:20:37.838Z,11.08
2018-11-03T11:23:14.492Z,10.70
2018-11-03T11:25:47.927Z,11.27
2018-11-03T11:28:21.992Z,9.80
2018-11-03T11:30:56.012Z,10.15
2018-11-03T11:33:29.737Z,9.20
2018-11-03T11:36:03.878Z,10.97
2018-11-03T11:38:37.735Z,10.20
2018-11-03T11:41:11.685Z,11.90
2018-11-03T11:43:45.779Z,10.40
2018-11-03T11:46:20.138Z,10.00
2018-11-03T11:48:54.337Z,10.03
2018-11-03T11:51:28.314Z,10.80
2018-11-03T11:54:02.281Z,11.23
2018-11-03T11:56:35.688Z,9.70
2018-11-03T11:59:09.088Z,11.97
2018-11-03T12:01:42.886Z,10.40
2018-11-03T12:04:16.679Z,9.90
2018-11-03T12:06:50.801Z,11.10
2018-11-03T12:09:25.739Z,9.63
2018-11-03T12:12:00.943Z,9.43
2018-11-03T12:14:34.754Z,10.70
2018-11-03T12:17:09.277Z,10.03
2018-11-03T12:19:43.300Z,10.03
2018-11-03T12:22:17.449Z,10.27
2018-11-03T12:24:52.742Z,9.33
2018-11-03T12:27:26.600Z,10.63
2018-11-03T12:30:01.674Z,10.30
2018-11-03T12:32:35.850Z,10.73
2018-11-03T12:35:10.098Z,8.60
2018-11-03T12:37:44.148Z,9.20
2018-11-03T12:40:18.647Z,9.38
2018-11-03T12:42:52.679Z,9.93
2018-11-03T12:45:26.812Z,8.90
2018-11-03T12:48:01.753Z,9.07
2018-11-03T12:50:35.639Z,8.43
2018-11-03T12:53:09.694Z,8.77
2018-11-03T12:55:43.053Z,8.40
2018-11-03T12:58:17.964Z,8.53
2018-11-03T13:00:52.222Z,9.77
2018-11-03T13:03:26.040Z,9.13
2018-11-03T13:05:59.840Z,8.93
2018-11-03T13:08:35.051Z,8.70
2018-11-03T13:11:08.975Z,9.60
2018-11-03T13:13:44.688Z,9.87
2018-11-03T13:16:18.749Z,9.27
2018-11-03T13:18:53.306Z,8.87
2018-11-03T13:21:27.160Z,8.23
2018-11-03T13:24:01.629Z,9.53
2018-11-03T13:26:35.552Z,9.10
2018-11-03T13:29:10.412Z,9.15
2018-11-03T13:31:44.330Z,9.90
2018-11-03T13:34:18.376Z,9.30
2018-11-03T13:36:51.965Z,8.97
2018-11-03T13:39:25.968Z,9.63
2018-11-03T13:41:59.743Z,8.80
2018-11-03T13:44:34.112Z,10.47
2018-11-03T13:47:08.119Z,14.58
2018-11-03T13:49:42.080Z,15.37
2018-11-03T13:52:15.882Z,16.20
2018-11-03T13:54:50.032Z,15.80
2018-11-03T13:57:23.881Z,16.77
2018-11-03T13:59:58.068Z,17.97
2018-11-03T14:02:33.441Z,17.27
2018-11-03T14:05:07.469Z,18.50
2018-11-03T14:07:42.464Z,18.87
2018-11-03T14:10:18.096Z,20.45
2018-11-03T14:12:51.593Z,20.40
2018-11-03T14:15:28.450Z,19.90
2018-11-03T14:18:02.357Z,19.90
2018-11-03T14:20:35.897Z,20.50
2018-11-03T14:23:10.929Z,19.43
2018-11-03T14:25:45.120Z,20.20
2018-11-03T14:28:18.844Z,19.10
2018-11-03T14:30:53.083Z,18.97
2018-11-03T14:33:26.995Z,18.33
2018-11-03T14:36:01.041Z,18.35
2018-11-03T14:38:36.150Z,18.90
2018-11-03T14:41:10.075Z,19.40
2018-11-03T14:43:44.097Z,19.73
2018-11-03T14:46:18.354Z,21.03
2018-11-03T14:48:52.651Z,20.07
2018-11-03T14:51:26.582Z,19.37
2018-11-03T14:54:00.914Z,18.65
2018-11-03T14:56:34.642Z,18.57
2018-11-03T14:59:08.818Z,18.83
2018-11-03T15:01:42.989Z,17.57
2018-11-03T15:04:17.100Z,18.30
2018-11-03T15:06:51.867Z,16.80
2018-11-03T15:09:25.592Z,17.17
2018-11-03T15:11:59.704Z,17.17
2018-11-03T15:14:34.396Z,17.87
2018-11-03T15:17:09.346Z,16.82
2018-11-03T15:19:43.696Z,18.47
2018-11-03T15:22:17.571Z,17.43
2018-11-03T15:24:51.695Z,17.03
2018-11-03T15:32:25.273Z,16.23
2018-11-03T15:34:59.036Z,17.32
2018-11-03T15:37:32.495Z,18.33
2018-11-03T15:40:06.320Z,19.07
2018-11-03T15:42:40.236Z,18.17
2018-11-03T15:45:16.875Z,18.47
2018-11-03T15:47:51.237Z,18.47
2018-11-03T15:50:25.029Z,18.00
2018-11-03T15:52:59.103Z,17.87
2018-11-03T15:55:32.738Z,16.37
2018-11-03T15:58:06.335Z,16.47
2018-11-03T16:00:40.497Z,17.87
2018-11-03T16:03:14.455Z,17.57
2018-11-03T16:05:48.142Z,19.27
2018-11-03T16:08:21.986Z,18.67
2018-11-03T16:10:55.755Z,17.27
2018-11-03T16:13:30.113Z,18.93
2018-11-03T16:16:03.795Z,18.27
2018-11-03T16:18:38.993Z,17.23
2018-11-03T16:21:12.469Z,17.87
2018-11-03T16:23:46.289Z,18.23
2018-11-03T16:26:20.911Z,17.73
2018-11-03T16:28:55.987Z,16.83
2018-11-03T16:31:30.149Z,17.67
2018-11-03T16:34:04.065Z,18.57
2018-11-03T16:36:38.225Z,17.37
2018-11-03T16:39:13.664Z,18.73
2018-11-03T16:41:47.849Z,19.27
2018-11-03T16:44:21.534Z,18.40
2018-11-03T16:46:56.557Z,17.33
2018-11-03T16:49:30.820Z,17.67
2018-11-03T16:52:04.508Z,16.03
2018-11-03T16:54:38.437Z,16.40
2018-11-03T16:57:12.456Z,17.50
2018-11-03T16:59:47.281Z,16.67
2018-11-03T17:02:21.791Z,17.17
2018-11-03T17:04:56.760Z,19.23
2018-11-03T17:07:30.394Z,19.07
2018-11-03T17:10:04.189Z,17.00
2018-11-03T17:12:38.306Z,17.77
2018-11-03T17:15:12.722Z,19.20
2018-11-03T17:17:46.266Z,18.97
2018-11-03T17:20:21.190Z,19.00
2018-11-03T17:22:55.040Z,19.20
2018-11-03T17:25:28.821Z,19.43
2018-11-03T17:28:02.505Z,19.17
2018-11-03T17:30:36.515Z,18.30
2018-11-03T17:33:10.265Z,18.47
2018-11-03T17:35:45.577Z,19.13
2018-11-03T17:38:19.208Z,19.53
2018-11-03T17:40:54.523Z,20.23
2018-11-03T17:43:29.003Z,18.93
2018-11-03T17:46:03.048Z,19.57
2018-11-03T17:48:38.679Z,17.20
2018-11-03T17:51:13.726Z,15.27
2018-11-03T17:53:47.737Z,13.93
2018-11-03T17:56:21.329Z,16.97
2018-11-03T17:58:56.431Z,14.77
2018-11-03T18:01:30.701Z,15.80
2018-11-03T18:04:04.722Z,14.50
2018-11-03T18:06:39.173Z,16.30
2018-11-03T18:09:14.350Z,17.47
2018-11-03T18:11:49.562Z,15.80
2018-11-03T18:14:23.577Z,16.23
2018-11-03T18:16:57.882Z,14.93
2018-11-03T18:19:32.134Z,14.73
2018-11-03T18:22:07.811Z,14.10
2018-11-03T18:24:41.742Z,15.30
2018-11-03T18:27:15.903Z,14.80
2018-11-03T18:29:51.057Z,14.13
2018-11-03T18:32:25.025Z,13.87
2018-11-03T18:34:59.335Z,14.97
2018-11-03T18:37:33.478Z,15.93
2018-11-03T18:40:08.578Z,15.03
2018-11-03T18:42:42.735Z,15.10
2018-11-03T18:45:19.713Z,14.20
2018-11-03T18:47:54.560Z,15.33
2018-11-03T18:50:28.075Z,14.33
2018-11-03T18:53:02.150Z,15.33
2018-11-03T18:55:36.269Z,13.33
2018-11-03T18:58:10.410Z,13.70
2018-11-03T19:00:43.975Z,13.60
2018-11-03T19:03:18.631Z,14.70
2018-11-03T19:05:52.909Z,13.73
2018-11-03T19:08:29.024Z,15.27
2018-11-03T19:11:04.328Z,14.70
2018-11-03T19:13:38.567Z,13.90
2018-11-03T19:16:13.490Z,13.57
2018-11-03T19:18:47.310Z,14.13
2018-11-03T19:21:21.433Z,14.13
2018-11-03T19:23:56.562Z,14.43
2018-11-03T19:26:30.284Z,14.47
2018-11-03T19:29:04.265Z,16.60
2018-11-03T19:31:39.023Z,16.13
2018-11-03T19:34:13.063Z,14.97
2018-11-03T19:36:47.181Z,15.67
2018-11-03T19:39:21.607Z,15.57
2018-11-03T19:41:56.004Z,14.87
2018-11-03T19:44:31.165Z,14.43
2018-11-03T19:47:06.136Z,15.40
2018-11-03T19:49:40.447Z,17.37
2018-11-03T19:52:14.680Z,17.40
2018-11-03T19:54:48.448Z,16.07
2018-11-03T19:57:22.326Z,14.77
2018-11-03T19:59:56.720Z,15.93
2018-11-03T20:02:31.095Z,16.20
2018-11-03T20:05:06.171Z,17.93
2018-11-03T20:07:40.260Z,16.60
2018-11-03T20:10:14.828Z,17.67
2018-11-03T20:12:48.811Z,15.57
2018-11-03T20:15:22.871Z,15.90
2018-11-03T20:17:57.040Z,16.33
2018-11-03T20:20:31.378Z,16.17
2018-11-03T20:23:06.140Z,17.57
2018-11-03T20:25:42.457Z,15.10
2018-11-03T20:28:16.717Z,16.17
2018-11-03T20:30:50.893Z,15.23
2018-11-03T20:33:24.878Z,15.73
2018-11-03T20:35:59.012Z,19.23
2018-11-03T20:38:32.916Z,17.70
2018-11-03T20:41:06.514Z,16.07
2018-11-03T20:43:41.012Z,15.57
2018-11-03T20:46:15.152Z,14.83
2018-11-03T20:48:50.544Z,15.77
2018-11-03T20:51:24.730Z,15.40
2018-11-03T20:53:59.482Z,16.23
2018-11-03T20:56:33.583Z,17.03
2018-11-03T20:59:07.596Z,16.43
2018-11-03T21:01:42.965Z,17.67
2018-11-03T21:04:18.103Z,14.87
2018-11-03T21:06:52.083Z,16.27
2018-11-03T21:09:26.236Z,15.17
2018-11-03T21:12:00.435Z,16.17
2018-11-03T21:14:35.531Z,14.33
2018-11-03T21:17:09.510Z,14.73
2018-11-03T21:19:43.810Z,16.87
2018-11-03T21:22:17.602Z,14.50
2018-11-03T21:24:51.994Z,17.10
2018-11-03T21:32:23.675Z,15.43
2018-11-03T21:34:57.505Z,16.63
2018-11-03T21:37:31.555Z,15.80
2018-11-03T21:40:05.658Z,15.73
2018-11-03T21:42:40.036Z,14.93
2018-11-03T21:45:14.354Z,14.40
2018-11-03T21:47:49.256Z,14.65
2018-11-03T21:50:23.258Z,15.33
2018-11-03T21:52:57.117Z,14.18
2018-11-03T21:55:31.336Z,15.70
2018-11-03T21:58:05.344Z,16.52
2018-11-03T22:00:39.107Z,14.30
2018-11-03T22:03:13.034Z,15.90
2018-11-03T22:05:47.676Z,15.43
2018-11-03T22:08:22.147Z,16.30
2018-11-03T22:10:56.395Z,17.20
2018-11-03T22:13:30.307Z,15.10
2018-11-03T22:16:04.418Z,14.83
2018-11-03T22:18:38.380Z,15.30
2018-11-03T22:21:13.007Z,14.23
2018-11-03T22:23:47.245Z,15.97
2018-11-03T22:26:21.517Z,14.37
2018-11-03T22:28:56.156Z,15.20
2018-11-03T22:31:30.114Z,16.77
2018-11-03T22:34:04.398Z,17.23
2018-11-03T22:36:38.443Z,16.48
2018-11-03T22:39:13.412Z,17.87
2018-11-03T22:41:47.931Z,20.52
2018-11-03T22:44:21.852Z,18.47
2018-11-03T22:46:55.962Z,17.40
2018-11-03T22:49:30.274Z,18.77
2018-11-03T22:52:08.549Z,17.07
2018-11-03T22:54:42.706Z,16.77
2018-11-03T22:57:16.809Z,16.37
2018-11-03T22:59:51.105Z,17.70
2018-11-03T23:02:24.742Z,16.82
2018-11-03T23:04:58.945Z,19.42
2018-11-03T23:07:34.255Z,20.10
2018-11-03T23:10:08.606Z,19.73
2018-11-03T23:12:42.253Z,18.70
2018-11-03T23:15:15.930Z,21.67
2018-11-03T23:17:49.957Z,22.20
2018-11-03T23:20:26.506Z,23.20
2018-11-03T23:23:01.820Z,21.60
2018-11-03T23:25:36.100Z,21.47
2018-11-03T23:28:10.747Z,18.25
2018-11-03T23:30:45.813Z,22.90
2018-11-03T23:33:20.863Z,24.07
2018-11-03T23:35:54.918Z,22.77
2018-11-03T23:38:29.163Z,23.70
2018-11-03T23:41:03.230Z,20.50
2018-11-03T23:43:37.182Z,20.77
2018-11-03T23:46:11.538Z,19.87
2018-11-03T23:48:46.300Z,20.60
2018-11-03T23:51:20.285Z,20.53
2018-11-03T23:53:56.412Z,23.13
2018-11-03T23:56:31.145Z,23.70
2018-11-03T23:59:05.577Z,23.27
